Time;durP1;ratioP1;P1;durP2;ratioP2;P2;SDS_P1;SDS_P2;PMS_P1;PMS_P2;Temp;Humidity;BMP_temperature;BMP_pressure;BME280_temperature;BME280_humidity;BME280_pressure;Samples;Min_cycle;Max_cycle;Signal;HPM_P1;HPM_P2
2021/06/04 00:00:40;;;;;;;18.88;11.63;;;20.50;92.00;;;;;;4926342;29;20370;-84
2021/06/04 00:03:19;;;;;;;19.98;11.68;;;20.50;91.90;;;;;;4920457;29;20039;-80
2021/06/04 00:05:49;;;;;;;20.40;11.93;;;20.50;91.90;;;;;;4927088;29;20167;-82
2021/06/04 00:08:16;;;;;;;19.38;11.13;;;20.40;91.80;;;;;;4946579;29;20019;-87
2021/06/04 00:10:50;;;;;;;20.80;11.77;;;20.40;91.90;;;;;;4945295;29;20028;-79
2021/06/04 00:13:21;;;;;;;21.88;12.55;;;20.40;91.90;;;;;;4948564;29;20027;-78
2021/06/04 00:15:49;;;;;;;18.55;12.43;;;20.50;91.90;;;;;;4934847;29;20026;-79
2021/06/04 00:18:15;;;;;;;22.27;13.20;;;20.40;91.90;;;;;;4919953;29;20440;-79
2021/06/04 00:20:40;;;;;;;21.88;13.65;;;20.40;91.90;;;;;;4948509;29;20098;-79
2021/06/04 00:23:07;;;;;;;24.83;13.07;;;20.40;91.80;;;;;;4934727;29;20496;-79
2021/06/04 00:25:34;;;;;;;21.13;13.25;;;20.40;91.80;;;;;;4925211;29;20024;-79
2021/06/04 00:27:59;;;;;;;26.40;14.05;;;20.30;91.70;;;;;;4919312;29;20028;-79
2021/06/04 00:30:26;;;;;;;25.33;14.48;;;20.30;91.80;;;;;;4932698;29;20551;-79
2021/06/04 00:32:52;;;;;;;22.13;14.50;;;20.30;91.70;;;;;;4917217;29;20035;-79
2021/06/04 00:35:18;;;;;;;23.45;14.32;;;20.30;91.80;;;;;;4921077;29;20372;-78
2021/06/04 00:37:43;;;;;;;22.92;13.07;;;20.30;91.80;;;;;;4945059;29;20038;-77
2021/06/04 00:40:20;;;;;;;21.00;13.80;;;20.30;91.80;;;;;;4948793;29;20020;-79
2021/06/04 00:42:46;;;;;;;27.42;15.07;;;20.30;92.10;;;;;;4943016;29;20028;-78
2021/06/04 00:45:20;;;;;;;25.48;14.52;;;20.30;91.80;;;;;;4937570;29;20110;-78
2021/06/04 00:47:46;;;;;;;24.77;14.85;;;20.30;91.80;;;;;;4939076;29;20023;-83
2021/06/04 00:50:15;;;;;;;27.77;15.40;;;20.30;91.80;;;;;;4940057;29;20020;-78
2021/06/04 00:52:42;;;;;;;26.17;14.77;;;20.30;91.80;;;;;;4938240;29;20031;-77
2021/06/04 00:55:11;;;;;;;34.33;15.88;;;20.30;91.70;;;;;;4947848;28;20080;-81
2021/06/04 00:57:38;;;;;;;27.50;16.05;;;20.30;91.70;;;;;;4926490;28;20059;-79
2021/06/04 01:00:14;;;;;;;27.05;15.52;;;20.30;91.70;;;;;;4940782;29;20088;-78
2021/06/04 01:02:40;;;;;;;30.35;15.77;;;20.30;91.70;;;;;;4952300;29;20046;-77
2021/06/04 01:05:09;;;;;;;23.15;14.13;;;20.30;91.60;;;;;;4921294;29;20139;-78
2021/06/04 01:07:47;;;;;;;27.85;16.63;;;20.30;91.60;;;;;;4940530;29;20416;-78
2021/06/04 01:10:51;;;;;;;26.25;14.55;;;20.30;91.60;;;;;;4956531;28;20478;-78
2021/06/04 01:13:19;;;;;;;29.20;14.70;;;20.30;91.50;;;;;;4888668;29;20503;-77
2021/06/04 01:16:04;;;;;;;29.58;16.60;;;20.30;91.50;;;;;;4944053;29;20464;-78
2021/06/04 01:18:49;;;;;;;29.45;16.10;;;20.20;91.50;;;;;;4942390;29;20457;-79
2021/06/04 01:21:42;;;;;;;27.52;15.77;;;20.20;91.60;;;;;;4940126;29;20011;-78
2021/06/04 01:24:39;;;;;;;30.13;15.27;;;20.20;91.50;;;;;;4936977;29;20050;-78
2021/06/04 01:27:13;;;;;;;30.73;15.68;;;20.20;91.40;;;;;;4958051;28;20023;-79
2021/06/04 01:29:48;;;;;;;28.15;15.45;;;20.10;91.30;;;;;;4944078;29;20102;-78
2021/06/04 01:32:19;;;;;;;30.98;17.05;;;20.10;91.30;;;;;;4939913;29;20027;-78
2021/06/04 01:34:54;;;;;;;28.95;16.25;;;20.10;91.30;;;;;;4935784;29;20066;-78
2021/06/04 01:37:27;;;;;;;29.27;16.73;;;20.10;91.30;;;;;;4943846;28;20134;-79
2021/06/04 01:39:57;;;;;;;30.00;17.23;;;20.10;91.30;;;;;;4965373;28;20030;-78
2021/06/04 01:42:31;;;;;;;29.83;15.65;;;20.00;91.30;;;;;;4945487;28;20052;-78
2021/06/04 01:45:10;;;;;;;30.63;16.75;;;20.00;91.30;;;;;;4960412;28;20391;-78
2021/06/04 01:47:48;;;;;;;35.08;17.98;;;20.00;91.30;;;;;;4948519;28;20019;-78
2021/06/04 01:50:20;;;;;;;32.40;17.30;;;20.00;91.30;;;;;;4942851;28;20512;-79
2021/06/04 01:52:48;;;;;;;30.52;17.23;;;19.90;91.40;;;;;;4969017;28;20030;-79
2021/06/04 01:55:26;;;;;;;31.23;18.55;;;19.90;91.50;;;;;;4963977;28;20035;-79
2021/06/04 01:58:03;;;;;;;31.60;17.30;;;19.90;91.50;;;;;;4950270;28;20042;-84
2021/06/04 02:00:34;;;;;;;33.10;17.25;;;19.90;91.50;;;;;;4949999;28;20018;-78
2021/06/04 02:03:00;;;;;;;29.92;15.93;;;19.90;91.50;;;;;;4948990;28;20026;-77
2021/06/04 02:05:33;;;;;;;33.85;17.30;;;19.90;91.60;;;;;;4940842;28;20110;-79
2021/06/04 02:07:59;;;;;;;34.38;19.08;;;19.90;91.60;;;;;;4962856;28;20019;-78
2021/06/04 02:10:37;;;;;;;33.80;18.17;;;19.80;91.60;;;;;;4966381;28;20077;-79
2021/06/04 02:13:04;;;;;;;29.38;16.75;;;19.80;91.60;;;;;;4960598;28;20038;-77
2021/06/04 02:15:33;;;;;;;33.63;17.98;;;19.80;91.50;;;;;;4965548;28;20168;-78
2021/06/04 02:18:20;;;;;;;33.65;16.92;;;19.80;91.50;;;;;;4958794;28;20490;-78
2021/06/04 02:20:56;;;;;;;32.13;17.13;;;19.70;91.50;;;;;;4964054;28;20047;-78
2021/06/04 02:23:36;;;;;;;35.08;18.10;;;19.70;91.50;;;;;;4944611;28;20024;-77
2021/06/04 02:26:25;;;;;;;33.22;17.30;;;19.60;91.50;;;;;;4942292;28;20122;-78
2021/06/04 02:29:31;;;;;;;35.30;18.60;;;19.60;91.50;;;;;;4942321;28;20110;-85
2021/06/04 02:32:12;;;;;;;33.85;17.83;;;19.60;91.50;;;;;;4956157;28;20043;-78
2021/06/04 02:34:43;;;;;;;36.75;19.00;;;19.50;91.60;;;;;;4959185;28;20460;-78
2021/06/04 02:37:15;;;;;;;;;;;19.50;91.50;;;;;;4963084;28;20102;-78
2021/06/04 02:39:48;;;;;;;36.80;19.52;;;19.50;91.50;;;;;;4942940;28;19906;-79
2021/06/04 02:42:23;;;;;;;41.45;20.35;;;19.50;91.50;;;;;;4971452;28;20027;-91
2021/06/04 02:45:07;;;;;;;34.65;19.27;;;19.50;91.50;;;;;;4949306;28;20018;-78
2021/06/04 02:47:38;;;;;;;40.17;18.80;;;19.40;91.50;;;;;;4956187;28;20030;-77
2021/06/04 02:50:18;;;;;;;38.65;19.67;;;19.40;91.50;;;;;;4943391;28;20083;-78
2021/06/04 02:52:45;;;;;;;44.75;20.52;;;19.40;91.50;;;;;;4960795;28;20078;-78
2021/06/04 02:55:24;;;;;;;40.58;19.75;;;19.40;91.60;;;;;;4955398;28;20093;-79
2021/06/04 02:57:49;;;;;;;37.42;19.67;;;19.40;91.70;;;;;;4938887;28;20486;-78
2021/06/04 03:00:23;;;;;;;35.97;18.92;;;19.30;91.70;;;;;;4956377;28;20027;-89
2021/06/04 03:02:49;;;;;;;34.20;18.58;;;19.30;91.80;;;;;;4950489;28;20452;-78
2021/06/04 03:05:21;;;;;;;33.67;18.65;;;19.30;91.80;;;;;;4942238;28;20011;-79
2021/06/04 03:07:48;;;;;;;32.95;20.02;;;19.30;91.80;;;;;;4956384;28;20019;-78
2021/06/04 03:10:32;;;;;;;32.00;17.48;;;19.30;91.80;;;;;;4955977;28;20368;-79
2021/06/04 03:12:58;;;;;;;34.65;18.13;;;19.30;91.70;;;;;;4948429;28;20046;-78
2021/06/04 03:15:35;;;;;;;34.58;18.48;;;19.30;91.60;;;;;;4938774;28;20047;-77
2021/06/04 03:18:01;;;;;;;39.63;19.77;;;19.30;91.70;;;;;;4955262;28;20037;-77
2021/06/04 03:20:35;;;;;;;34.75;18.48;;;19.30;91.70;;;;;;4921548;28;20031;-79
2021/06/04 03:23:01;;;;;;;34.25;18.27;;;19.30;91.70;;;;;;4958542;28;20062;-80
2021/06/04 03:25:32;;;;;;;37.95;20.58;;;19.20;91.70;;;;;;4951012;28;20018;-78
2021/06/04 03:27:58;;;;;;;35.45;18.90;;;19.20;91.80;;;;;;4957387;28;20023;-78
2021/06/04 03:30:28;;;;;;;35.40;18.20;;;19.20;91.70;;;;;;4957325;28;20026;-78
2021/06/04 03:32:54;;;;;;;34.67;18.60;;;19.20;91.70;;;;;;4953352;28;20034;-78
2021/06/04 03:35:21;;;;;;;35.75;19.10;;;19.20;91.70;;;;;;4936037;28;20019;-79
2021/06/04 03:37:47;;;;;;;33.58;18.95;;;19.20;91.70;;;;;;4957002;28;20051;-79
2021/06/04 03:40:16;;;;;;;32.03;18.23;;;19.20;91.70;;;;;;4928573;29;20020;-78
2021/06/04 03:42:43;;;;;;;36.22;18.67;;;19.20;91.70;;;;;;4935379;29;20127;-78
2021/06/04 03:45:14;;;;;;;36.28;18.38;;;19.10;91.70;;;;;;4932118;29;20023;-78
2021/06/04 03:47:40;;;;;;;39.72;19.25;;;19.10;91.70;;;;;;4928284;29;20668;-78
2021/06/04 03:50:09;;;;;;;34.63;18.40;;;19.10;91.80;;;;;;4947037;29;20023;-78
2021/06/04 03:52:34;;;;;;;36.33;19.52;;;19.10;91.80;;;;;;4926677;29;20074;-78
2021/06/04 03:55:02;;;;;;;33.05;19.13;;;19.10;91.80;;;;;;4949076;29;20502;-78
2021/06/04 03:57:33;;;;;;;35.33;18.55;;;19.10;91.70;;;;;;4938625;28;20042;-79
2021/06/04 04:00:00;;;;;;;33.83;18.63;;;19.10;91.70;;;;;;4937854;28;20011;-78
2021/06/04 04:02:28;;;;;;;39.42;20.20;;;19.00;91.70;;;;;;4935384;29;20027;-81
2021/06/04 04:04:59;;;;;;;34.05;20.20;;;19.00;91.70;;;;;;4939973;29;20021;-79
2021/06/04 04:07:28;;;;;;;;;;;19.00;91.70;;;;;;4939440;29;20449;-78
2021/06/04 04:09:54;;;;;;;36.70;18.25;;;19.00;91.80;;;;;;4950511;29;19963;-78
2021/06/04 04:12:21;;;;;;;36.03;18.33;;;19.00;91.70;;;;;;4936942;29;20044;-87
2021/06/04 04:14:47;;;;;;;38.83;19.40;;;19.00;91.70;;;;;;4940490;29;20023;-77
2021/06/04 04:17:13;;;;;;;36.65;19.00;;;18.90;91.80;;;;;;4939218;29;20096;-77
2021/06/04 04:19:39;;;;;;;34.10;18.23;;;18.90;91.80;;;;;;4922461;29;20035;-79
2021/06/04 04:22:06;;;;;;;34.22;17.73;;;18.90;91.80;;;;;;4922911;29;20020;-79
2021/06/04 04:24:35;;;;;;;34.63;18.80;;;19.00;91.80;;;;;;4941194;29;20024;-78
2021/06/04 04:27:03;;;;;;;55.38;31.10;;;18.90;91.90;;;;;;4927368;29;20023;-78
2021/06/04 04:29:28;;;;;;;41.20;23.40;;;19.00;91.90;;;;;;4922241;29;20020;-78
2021/06/04 04:31:58;;;;;;;38.30;20.27;;;19.00;91.90;;;;;;4947714;29;20042;-77
2021/06/04 04:34:26;;;;;;;35.95;19.10;;;18.90;91.90;;;;;;4927333;29;20019;-78
2021/06/04 04:36:54;;;;;;;35.58;19.02;;;19.00;92.00;;;;;;4926867;29;20187;-81
2021/06/04 04:39:26;;;;;;;33.08;17.60;;;19.00;92.00;;;;;;4944121;29;20115;-77
2021/06/04 04:41:52;;;;;;;38.38;19.02;;;19.00;92.00;;;;;;4943631;29;20527;-78
2021/06/04 04:44:24;;;;;;;32.13;17.83;;;19.00;91.90;;;;;;4945393;29;20094;-79
2021/06/04 04:46:49;;;;;;;34.75;18.70;;;19.00;92.00;;;;;;4938747;29;20348;-81
2021/06/04 04:49:15;;;;;;;32.38;18.00;;;19.00;91.90;;;;;;4940921;29;20023;-79
2021/06/04 04:51:41;;;;;;;31.10;17.45;;;19.00;91.90;;;;;;4947485;29;20570;-79
2021/06/04 04:54:09;;;;;;;30.60;17.52;;;19.00;91.80;;;;;;4929270;29;20460;-79
2021/06/04 04:56:35;;;;;;;35.85;17.92;;;19.10;91.70;;;;;;4947072;29;20020;-78
2021/06/04 04:59:03;;;;;;;32.85;17.40;;;19.10;91.70;;;;;;4926607;29;20060;-78
2021/06/04 05:01:30;;;;;;;33.03;18.15;;;19.10;91.70;;;;;;4939836;29;20432;-77
2021/06/04 05:03:56;;;;;;;36.45;18.95;;;19.10;91.80;;;;;;4948050;29;20019;-80
2021/06/04 05:06:22;;;;;;;33.10;18.63;;;19.10;91.80;;;;;;4928175;29;20376;-83
2021/06/04 05:08:47;;;;;;;36.25;19.70;;;19.10;91.80;;;;;;4945966;29;20460;-79
2021/06/04 05:11:14;;;;;;;40.80;19.58;;;19.10;91.90;;;;;;4952702;29;20149;-81
2021/06/04 05:13:41;;;;;;;38.95;19.85;;;19.10;91.90;;;;;;4955636;29;20122;-77
2021/06/04 05:16:06;;;;;;;36.45;18.33;;;19.10;91.90;;;;;;4939093;29;20482;-77
2021/06/04 05:18:34;;;;;;;38.20;19.10;;;19.10;92.00;;;;;;4955804;29;20031;-76
2021/06/04 05:21:01;;;;;;;33.17;17.33;;;19.10;92.00;;;;;;4939094;29;20023;-76
2021/06/04 05:23:28;;;;;;;31.27;17.25;;;19.10;91.90;;;;;;4938529;29;20027;-79
2021/06/04 05:25:55;;;;;;;30.88;16.35;;;19.10;91.80;;;;;;4939838;29;20027;-77
2021/06/04 05:28:23;;;;;;;29.58;15.60;;;19.10;91.70;;;;;;4956655;29;20031;-77
2021/06/04 05:30:51;;;;;;;30.98;16.40;;;19.20;91.60;;;;;;4955565;29;20034;-77
2021/06/04 05:33:23;;;;;;;35.50;17.73;;;19.20;91.50;;;;;;4956133;29;20027;-77
2021/06/04 05:35:49;;;;;;;28.15;15.50;;;19.20;91.40;;;;;;4955617;29;20397;-76
2021/06/04 05:38:15;;;;;;;30.63;17.40;;;19.20;91.30;;;;;;4956136;28;20142;-77
2021/06/04 05:40:44;;;;;;;29.13;15.90;;;19.20;91.30;;;;;;4938230;29;20059;-77
2021/06/04 05:43:16;;;;;;;29.60;16.00;;;19.20;91.30;;;;;;4955565;28;20042;-77
2021/06/04 05:45:43;;;;;;;31.90;16.60;;;19.20;91.20;;;;;;4938148;29;20030;-77
2021/06/04 05:48:10;;;;;;;31.08;15.30;;;19.20;91.20;;;;;;4938261;29;20027;-78
2021/06/04 05:50:39;;;;;;;28.17;15.82;;;19.20;91.10;;;;;;4938349;29;20023;-77
2021/06/04 05:53:07;;;;;;;31.77;16.55;;;19.30;91.20;;;;;;4938875;29;20058;-77
2021/06/04 05:55:35;;;;;;;33.15;15.48;;;19.30;91.20;;;;;;4937996;29;20020;-77
2021/06/04 05:58:03;;;;;;;29.05;14.85;;;19.30;91.10;;;;;;4938387;29;20087;-76
2021/06/04 06:00:36;;;;;;;33.05;15.65;;;19.30;91.10;;;;;;4955379;29;20024;-82
2021/06/04 06:03:03;;;;;;;29.95;14.98;;;19.30;91.00;;;;;;4955551;29;20172;-77
2021/06/04 06:05:29;;;;;;;26.23;14.20;;;19.40;91.00;;;;;;4937808;29;20027;-83
2021/06/04 06:07:55;;;;;;;25.35;13.65;;;19.40;90.90;;;;;;4938280;29;20479;-77
2021/06/04 06:10:24;;;;;;;25.70;12.60;;;19.40;90.70;;;;;;4938142;29;20375;-77
2021/06/04 06:12:51;;;;;;;24.40;13.45;;;19.50;90.60;;;;;;4937652;29;20119;-76
2021/06/04 06:15:17;;;;;;;24.35;13.80;;;19.50;90.40;;;;;;4955450;29;20020;-78
2021/06/04 06:17:44;;;;;;;27.90;14.02;;;19.50;90.40;;;;;;4937047;29;20027;-76
2021/06/04 06:20:13;;;;;;;22.70;11.82;;;19.50;90.20;;;;;;4955364;29;20034;-77
2021/06/04 06:22:39;;;;;;;26.27;13.52;;;19.60;90.10;;;;;;4954542;29;20023;-77
2021/06/04 06:25:08;;;;;;;24.75;12.80;;;19.50;89.80;;;;;;4937903;29;20376;-76
2021/06/04 06:27:34;;;;;;;22.40;13.35;;;19.50;89.90;;;;;;4954252;29;20023;-78
2021/06/04 06:30:00;;;;;;;24.67;13.32;;;19.50;89.70;;;;;;4955358;29;20460;-77
2021/06/04 06:32:25;;;;;;;23.13;13.23;;;19.50;89.60;;;;;;4937716;29;20034;-77
2021/06/04 06:34:54;;;;;;;24.88;13.65;;;19.60;89.60;;;;;;4954624;29;20042;-77
2021/06/04 06:37:20;;;;;;;24.95;12.50;;;19.60;89.70;;;;;;4937481;29;20043;-75
2021/06/04 06:39:46;;;;;;;27.25;13.20;;;19.70;89.20;;;;;;4954135;29;20486;-76
2021/06/04 06:42:12;;;;;;;24.35;13.93;;;19.80;89.00;;;;;;4954933;29;20031;-75
2021/06/04 06:44:37;;;;;;;24.67;13.05;;;19.90;89.00;;;;;;4954614;29;20106;-76
2021/06/04 06:47:04;;;;;;;25.42;12.80;;;19.90;88.80;;;;;;4937577;29;20118;-77
2021/06/04 06:49:30;;;;;;;21.52;12.18;;;19.90;88.80;;;;;;4937307;29;20392;-77
2021/06/04 06:51:56;;;;;;;28.60;13.00;;;19.90;88.80;;;;;;4936813;29;20023;-77
2021/06/04 06:54:26;;;;;;;25.83;12.20;;;19.90;88.90;;;;;;4937438;29;20504;-76
2021/06/04 06:56:54;;;;;;;22.53;11.50;;;19.90;88.70;;;;;;4936924;29;20539;-77
2021/06/04 06:59:22;;;;;;;23.17;12.20;;;19.90;88.80;;;;;;4954443;29;20023;-77
2021/06/04 07:01:48;;;;;;;21.60;10.55;;;20.00;88.50;;;;;;4936800;29;20024;-77
2021/06/04 07:04:14;;;;;;;18.63;10.55;;;20.00;88.30;;;;;;4954496;29;20026;-77
2021/06/04 07:06:41;;;;;;;20.20;11.27;;;20.00;88.20;;;;;;4937649;29;20090;-78
2021/06/04 07:09:10;;;;;;;19.05;10.40;;;20.00;88.10;;;;;;4938494;29;20047;-77
2021/06/04 07:11:39;;;;;;;19.27;10.48;;;20.10;88.20;;;;;;4937610;29;20472;-76
2021/06/04 07:14:07;;;;;;;18.08;10.02;;;20.20;88.20;;;;;;4937246;29;20035;-78
2021/06/04 07:16:34;;;;;;;17.85;9.93;;;20.20;87.80;;;;;;4954300;29;20071;-77
2021/06/04 07:19:00;;;;;;;19.60;10.10;;;20.20;87.50;;;;;;4937075;29;20436;-77
2021/06/04 07:21:27;;;;;;;23.20;10.90;;;20.30;87.40;;;;;;4954234;29;20024;-77
2021/06/04 07:23:56;;;;;;;23.58;11.02;;;20.40;87.60;;;;;;4953594;29;20395;-77
2021/06/04 07:26:23;;;;;;;21.60;10.95;;;20.40;86.70;;;;;;4953976;29;20053;-77
2021/06/04 07:28:49;;;;;;;17.48;9.73;;;20.40;86.50;;;;;;4953667;29;20034;-77
2021/06/04 07:31:17;;;;;;;20.30;10.55;;;20.50;86.70;;;;;;4937087;29;20015;-76
2021/06/04 07:33:49;;;;;;;19.58;9.77;;;20.50;86.70;;;;;;4936237;29;20031;-76
2021/06/04 07:36:21;;;;;;;17.05;9.48;;;20.60;86.40;;;;;;4954120;29;20105;-77
2021/06/04 07:38:47;;;;;;;18.17;9.88;;;20.60;86.30;;;;;;4955044;28;20043;-78
2021/06/04 07:41:14;;;;;;;17.40;9.68;;;20.60;86.40;;;;;;4954156;29;20031;-77
2021/06/04 07:43:44;;;;;;;18.33;8.80;;;20.70;86.70;;;;;;4936338;29;20027;-77
2021/06/04 07:46:10;;;;;;;20.00;10.20;;;20.70;86.40;;;;;;4936721;29;20023;-77
2021/06/04 07:48:37;;;;;;;18.98;9.90;;;20.70;86.10;;;;;;4953712;29;20171;-76
2021/06/04 07:51:08;;;;;;;19.15;9.90;;;20.80;86.10;;;;;;4954346;29;20035;-77
2021/06/04 07:53:36;;;;;;;21.23;10.43;;;20.80;86.00;;;;;;4936574;29;20031;-77
2021/06/04 07:56:04;;;;;;;25.58;11.15;;;20.70;85.90;;;;;;4953595;29;20028;-76
2021/06/04 07:58:30;;;;;;;21.13;10.07;;;20.70;86.20;;;;;;4953647;29;20027;-77
2021/06/04 08:00:55;;;;;;;17.13;9.90;;;20.70;86.30;;;;;;4953004;29;20023;-75
2021/06/04 08:03:24;;;;;;;17.08;10.23;;;20.70;86.20;;;;;;4936669;29;20054;-77
2021/06/04 08:05:50;;;;;;;19.83;10.38;;;20.70;86.10;;;;;;4955376;28;20034;-77
2021/06/04 08:08:17;;;;;;;20.55;11.05;;;20.70;85.80;;;;;;4958091;29;20023;-77
2021/06/04 08:10:44;;;;;;;21.00;10.95;;;20.80;85.60;;;;;;4957715;29;20090;-77
2021/06/04 08:13:14;;;;;;;20.48;10.45;;;20.80;85.30;;;;;;4958279;29;20042;-77
2021/06/04 08:15:45;;;;;;;21.80;11.43;;;21.00;85.20;;;;;;4940920;29;20078;-77
2021/06/04 08:18:11;;;;;;;22.90;11.70;;;21.00;85.00;;;;;;4958826;29;20083;-76
2021/06/04 08:20:38;;;;;;;24.25;11.77;;;21.00;84.80;;;;;;4957528;29;20038;-77
2021/06/04 08:23:12;;;;;;;19.85;10.85;;;21.10;84.90;;;;;;4940221;29;20036;-77
2021/06/04 08:25:42;;;;;;;21.85;11.05;;;21.20;84.80;;;;;;4940608;29;20031;-77
2021/06/04 08:28:09;;;;;;;23.73;12.15;;;21.30;84.40;;;;;;4957753;29;20030;-76
2021/06/04 08:30:36;;;;;;;24.42;11.13;;;21.30;84.20;;;;;;4940233;29;20416;-76
2021/06/04 08:33:03;;;;;;;23.38;11.25;;;21.20;84.10;;;;;;4923628;29;20188;-76
2021/06/04 08:35:29;;;;;;;22.90;10.82;;;21.20;84.30;;;;;;4957129;29;20047;-77
2021/06/04 08:37:56;;;;;;;23.70;10.85;;;21.20;84.60;;;;;;4956376;28;20051;-77
2021/06/04 08:40:29;;;;;;;22.45;10.48;;;21.20;84.80;;;;;;4939930;29;20033;-76
2021/06/04 08:43:20;;;;;;;21.20;9.82;;;21.20;84.70;;;;;;4939101;29;20030;-77
2021/06/04 08:45:58;;;;;;;;;;;21.20;84.40;;;;;;4956806;29;20106;-75
2021/06/04 08:48:30;;;;;;;18.30;10.43;;;21.20;84.40;;;;;;4939802;29;19906;-76
2021/06/04 08:51:25;;;;;;;19.40;9.65;;;21.20;84.20;;;;;;4938997;29;20028;-76
2021/06/04 08:53:56;;;;;;;19.05;10.45;;;21.20;84.20;;;;;;4956407;29;20035;-77
2021/06/04 08:56:33;;;;;;;18.52;10.27;;;21.30;84.00;;;;;;4939525;29;20031;-75
2021/06/04 08:59:05;;;;;;;18.50;10.27;;;21.30;83.80;;;;;;4955961;29;20031;-76
2021/06/04 09:01:54;;;;;;;21.17;11.40;;;21.40;83.10;;;;;;4939234;29;20171;-75
2021/06/04 09:04:24;;;;;;;21.13;11.05;;;21.40;82.80;;;;;;4939864;29;20126;-77
2021/06/04 09:06:53;;;;;;;18.30;9.77;;;21.50;82.80;;;;;;4956182;29;20019;-77
2021/06/04 09:09:47;;;;;;;18.50;10.27;;;21.60;82.70;;;;;;4939329;29;20034;-75
2021/06/04 09:12:18;;;;;;;19.77;11.40;;;21.70;82.30;;;;;;4939182;29;20122;-77
2021/06/04 09:14:45;;;;;;;19.90;9.75;;;21.80;81.80;;;;;;4956124;29;20035;-78
2021/06/04 09:17:35;;;;;;;16.88;9.98;;;21.90;81.40;;;;;;4955251;28;20031;-77
2021/06/04 09:20:21;;;;;;;18.03;9.53;;;22.00;81.10;;;;;;4956183;29;20031;-76
2021/06/04 09:22:48;;;;;;;16.00;9.50;;;22.10;80.60;;;;;;4938440;29;20023;-75
2021/06/04 09:25:22;;;;;;;16.67;9.70;;;22.10;80.20;;;;;;4955994;29;20028;-77
2021/06/04 09:28:09;;;;;;;16.63;9.65;;;22.30;79.50;;;;;;4955461;29;20023;-76
2021/06/04 09:30:42;;;;;;;20.60;9.25;;;22.40;79.10;;;;;;4956112;29;20023;-76
2021/06/04 09:33:12;;;;;;;16.95;9.65;;;22.60;79.10;;;;;;4938199;29;20058;-77
2021/06/04 09:35:53;;;;;;;16.88;8.65;;;22.70;79.10;;;;;;4938937;29;20391;-77
2021/06/04 09:38:28;;;;;;;16.48;7.88;;;22.70;78.90;;;;;;4945676;29;20043;-76
2021/06/04 09:40:55;;;;;;;14.38;7.38;;;22.80;78.60;;;;;;4955416;29;20135;-76
2021/06/04 09:43:33;;;;;;;11.35;6.18;;;22.90;78.10;;;;;;4954708;29;20441;-76
2021/06/04 09:46:01;;;;;;;9.77;5.88;;;23.00;77.60;;;;;;4955557;29;20035;-77
2021/06/04 09:48:33;;;;;;;10.85;6.03;;;23.10;77.60;;;;;;4954377;29;20030;-75
2021/06/04 09:51:04;;;;;;;9.73;5.82;;;23.10;77.50;;;;;;4954105;29;20046;-76
2021/06/04 09:53:30;;;;;;;9.20;5.82;;;23.20;77.60;;;;;;4955452;29;20039;-76
2021/06/04 09:56:08;;;;;;;24.48;8.85;;;23.20;77.70;;;;;;4955144;29;20031;-76
2021/06/04 09:58:52;;;;;;;10.13;5.65;;;23.30;77.50;;;;;;4954478;29;20028;-76
2021/06/04 10:01:20;;;;;;;11.68;6.10;;;23.40;77.20;;;;;;4955589;29;20019;-76
2021/06/04 10:03:49;;;;;;;13.80;6.63;;;23.40;77.00;;;;;;4955545;29;20027;-76
2021/06/04 10:06:33;;;;;;;11.30;6.05;;;23.50;76.10;;;;;;4955584;29;20027;-76
2021/06/04 10:09:28;;;;;;;10.40;5.90;;;23.40;76.30;;;;;;4955108;29;20495;-75
2021/06/04 10:12:29;;;;;;;10.30;5.72;;;23.40;76.10;;;;;;4954846;29;20031;-76
2021/06/04 10:14:58;;;;;;;10.63;6.25;;;23.40;76.30;;;;;;4945586;29;20042;-76
2021/06/04 10:17:45;;;;;;;9.52;6.32;;;23.50;76.30;;;;;;4955495;29;20102;-76
2021/06/04 10:20:34;;;;;;;8.65;5.28;;;23.50;75.90;;;;;;4953550;29;20090;-76
2021/06/04 10:23:38;;;;;;;9.00;5.13;;;23.50;75.90;;;;;;4954868;29;20468;-76
2021/06/04 10:26:29;;;;;;;8.55;5.30;;;23.60;75.60;;;;;;4954400;29;20380;-76
2021/06/04 10:29:03;;;;;;;12.50;6.07;;;23.60;75.70;;;;;;4937332;29;20023;-76
2021/06/04 10:31:28;;;;;;;10.70;7.10;;;23.60;75.70;;;;;;4955121;29;20031;-75
2021/06/04 10:33:58;;;;;;;15.25;8.30;;;23.60;75.40;;;;;;4953150;29;20034;-76
2021/06/04 10:36:26;;;;;;;14.13;6.85;;;23.70;74.90;;;;;;4953698;29;20019;-76
2021/06/04 10:39:06;;;;;;;14.02;7.50;;;23.70;74.90;;;;;;4936971;29;20094;-76
2021/06/04 10:42:03;;;;;;;14.23;8.40;;;23.70;74.60;;;;;;4937931;29;20023;-76
2021/06/04 10:44:36;;;;;;;14.38;7.65;;;23.70;74.90;;;;;;4937816;29;20035;-75
2021/06/04 10:47:36;;;;;;;14.32;7.72;;;23.80;74.60;;;;;;4954263;29;20030;-76
2021/06/04 10:50:11;;;;;;;12.35;6.75;;;24.00;74.40;;;;;;4936647;29;20038;-76
2021/06/04 10:53:01;;;;;;;10.32;6.40;;;24.20;74.00;;;;;;4937441;29;20050;-75
2021/06/04 10:55:37;;;;;;;9.15;5.80;;;24.40;73.10;;;;;;4954444;29;20387;-75
2021/06/04 10:58:12;;;;;;;9.75;6.03;;;24.50;72.20;;;;;;4954179;29;20055;-75
2021/06/04 11:00:47;;;;;;;12.75;8.80;;;24.70;72.20;;;;;;4937426;29;20428;-76
2021/06/04 11:03:25;;;;;;;11.73;7.28;;;24.80;71.70;;;;;;4953959;29;20042;-76
2021/06/04 11:05:54;;;;;;;12.13;7.60;;;24.80;71.70;;;;;;4954910;29;20110;-76
2021/06/04 11:08:30;;;;;;;11.85;6.82;;;24.90;71.70;;;;;;4937492;29;20024;-76
2021/06/04 11:11:24;;;;;;;11.50;7.03;;;25.00;71.70;;;;;;4937573;29;20027;-75
2021/06/04 11:14:25;;;;;;;17.00;8.05;;;25.20;71.90;;;;;;4954581;29;20375;-75
2021/06/04 11:17:16;;;;;;;11.77;7.50;;;25.40;71.50;;;;;;4954646;29;20131;-75
2021/06/04 11:20:05;;;;;;;12.82;8.00;;;25.60;71.30;;;;;;4936816;29;20038;-76
2021/06/04 11:22:45;;;;;;;13.15;7.65;;;25.80;71.00;;;;;;4954003;29;20031;-75
2021/06/04 11:25:25;;;;;;;11.53;7.17;;;25.90;70.50;;;;;;4953573;29;20025;-76
2021/06/04 11:28:01;;;;;;;9.98;5.95;;;26.00;70.70;;;;;;4937061;29;20178;-76
2021/06/04 11:30:30;;;;;;;12.20;6.30;;;26.00;70.40;;;;;;4937323;29;20055;-76
2021/06/04 11:33:11;;;;;;;12.48;6.65;;;26.10;70.60;;;;;;4936247;29;20472;-75
2021/06/04 11:35:48;;;;;;;9.85;6.30;;;26.20;70.80;;;;;;4953918;29;20030;-74
2021/06/04 11:38:32;;;;;;;14.93;7.70;;;26.20;70.60;;;;;;4943835;28;20055;-76
2021/06/04 11:41:25;;;;;;;9.10;5.82;;;26.20;70.80;;;;;;4972485;28;20053;-77
2021/06/04 11:44:42;;;;;;;10.15;6.78;;;26.30;71.00;;;;;;4967179;28;20090;-75
2021/06/04 11:47:13;;;;;;;8.48;5.38;;;26.40;70.70;;;;;;4942890;28;20035;-76
2021/06/04 11:49:58;;;;;;;10.73;6.07;;;26.60;70.40;;;;;;4955852;28;20027;-75
2021/06/04 11:52:39;;;;;;;9.95;6.20;;;26.70;70.00;;;;;;4955587;28;20035;-76
2021/06/04 11:55:30;;;;;;;12.23;6.65;;;26.90;69.80;;;;;;4955355;28;20031;-76
2021/06/04 11:58:14;;;;;;;;;;;27.10;69.10;;;;;;4973041;28;20416;-78
2021/06/04 12:00:47;;;;;;;9.57;5.60;;;27.20;69.00;;;;;;4972043;28;20365;-76
2021/06/04 12:03:14;;;;;;;11.13;6.55;;;27.30;68.50;;;;;;4955209;28;20364;-76
2021/06/04 12:05:53;;;;;;;9.57;5.40;;;27.40;68.30;;;;;;4973072;28;20136;-77
2021/06/04 12:08:24;;;;;;;12.10;6.50;;;27.60;68.00;;;;;;4972535;28;20030;-74
2021/06/04 12:10:53;;;;;;;10.25;6.40;;;27.70;67.50;;;;;;4972715;28;20030;-76
2021/06/04 12:13:51;;;;;;;11.15;6.50;;;27.90;67.00;;;;;;4972341;28;20030;-76
2021/06/04 12:16:26;;;;;;;8.60;6.05;;;27.90;66.50;;;;;;4972511;28;20031;-76
2021/06/04 12:19:01;;;;;;;8.95;6.00;;;28.00;66.50;;;;;;4955733;28;20030;-76
2021/06/04 12:21:39;;;;;;;10.20;6.22;;;28.10;65.90;;;;;;4973388;28;20027;-77
2021/06/04 12:24:08;;;;;;;10.43;6.13;;;28.10;66.20;;;;;;4972348;28;20023;-76
2021/06/04 12:26:47;;;;;;;8.52;5.28;;;28.10;66.00;;;;;;4955526;28;20045;-77
2021/06/04 12:29:30;;;;;;;6.95;5.28;;;28.20;65.60;;;;;;4972013;28;20031;-76
2021/06/04 12:32:03;;;;;;;9.75;5.80;;;28.20;65.50;;;;;;4972686;28;20031;-76
2021/06/04 12:34:35;;;;;;;8.77;5.40;;;28.30;65.00;;;;;;4955503;28;20114;-77
2021/06/04 12:37:22;;;;;;;10.93;5.82;;;28.30;64.80;;;;;;4954942;28;20038;-77
2021/06/04 12:40:25;;;;;;;9.40;5.10;;;28.20;64.80;;;;;;4955078;28;20053;-76
2021/06/04 12:43:12;;;;;;;7.68;5.55;;;28.30;64.80;;;;;;4972905;28;20038;-76
2021/06/04 12:46:03;;;;;;;9.10;5.38;;;28.30;64.20;;;;;;4955299;28;20027;-76
2021/06/04 12:48:40;;;;;;;8.73;4.97;;;28.30;64.50;;;;;;4964996;28;20035;-75
2021/06/04 12:51:16;;;;;;;10.05;5.85;;;28.20;64.50;;;;;;4955787;28;20030;-76
2021/06/04 12:54:03;;;;;;;8.70;4.97;;;28.00;64.50;;;;;;4958812;28;20439;-76
2021/06/04 12:56:29;;;;;;;11.00;6.03;;;27.80;64.50;;;;;;4958964;28;20037;-76
2021/06/04 12:59:08;;;;;;;8.63;5.15;;;27.60;65.10;;;;;;4974933;28;20027;-77
2021/06/04 13:01:53;;;;;;;10.60;6.00;;;27.50;65.00;;;;;;4975927;28;20431;-76